Time;durP1;ratioP1;P1;durP2;ratioP2;P2;SDS_P1;SDS_P2;PMS_P1;PMS_P2;Temp;Humidity;BMP_temperature;BMP_pressure;BME280_temperature;BME280_humidity;BME280_pressure;Samples;Min_cycle;Max_cycle;Signal;HPM_P1;HPM_P2
2022/09/03 00:00:22;;;;;;;6.45;2.33;;;;;;;16.95;53.04;101060.41;5051987;28;20182;-55
2022/09/03 00:02:58;;;;;;;5.15;2.10;;;;;;;16.92;53.29;101058.03;5051915;28;20068;-55
2022/09/03 00:05:35;;;;;;;5.20;2.08;;;;;;;16.88;53.96;101062.72;5051956;28;20126;-55
2022/09/03 00:08:12;;;;;;;6.50;2.05;;;;;;;16.86;54.27;101058.53;5050575;28;20546;-53
2022/09/03 00:10:46;;;;;;;5.63;1.98;;;;;;;16.90;54.18;101054.66;5051758;28;20503;-54
2022/09/03 00:13:19;;;;;;;4.80;2.10;;;;;;;16.83;54.55;101056.16;5051958;28;20074;-56
2022/09/03 00:15:48;;;;;;;3.92;1.90;;;;;;;16.85;54.56;101048.88;5050947;28;20045;-56
2022/09/03 00:18:21;;;;;;;8.52;2.40;;;;;;;16.83;54.59;101051.66;5051613;28;20048;-53
2022/09/03 00:20:51;;;;;;;;;;;;;;;16.79;54.94;101057.38;5052182;28;20049;-59
2022/09/03 00:23:24;;;;;;;4.95;2.00;;;;;;;16.76;55.03;101055.00;5051815;28;19928;-60
2022/09/03 00:25:58;;;;;;;6.53;2.22;;;;;;;16.67;55.14;101059.31;5050434;28;20064;-60
2022/09/03 00:28:31;;;;;;;6.50;2.22;;;;;;;16.69;55.11;101060.03;5050382;28;20052;-59
2022/09/03 00:31:10;;;;;;;7.10;2.63;;;;;;;16.64;55.20;101054.25;5052102;28;20064;-59
2022/09/03 00:33:41;;;;;;;5.57;2.20;;;;;;;16.62;55.00;101054.41;5051883;28;20051;-60
2022/09/03 00:36:16;;;;;;;6.97;2.35;;;;;;;16.62;55.34;101051.75;5051678;28;20049;-55
2022/09/03 00:38:46;;;;;;;8.32;2.47;;;;;;;16.56;55.52;101058.44;5051920;28;20041;-59
2022/09/03 00:41:29;;;;;;;7.32;2.58;;;;;;;16.48;55.63;101054.75;5051954;28;20486;-59
2022/09/03 00:44:13;;;;;;;6.90;2.78;;;;;;;16.47;55.67;101053.06;5051623;28;20393;-58
2022/09/03 00:46:47;;;;;;;7.43;2.85;;;;;;;16.45;55.39;101047.06;5051796;28;20061;-56
2022/09/03 00:49:36;;;;;;;9.45;2.90;;;;;;;16.44;55.83;101056.00;5051179;28;20463;-54
2022/09/03 00:52:14;;;;;;;9.75;2.67;;;;;;;16.38;55.69;101054.72;5051598;28;20052;-59
2022/09/03 00:54:55;;;;;;;6.75;2.33;;;;;;;16.34;55.74;101046.16;5051423;28;20049;-60
2022/09/03 00:57:34;;;;;;;5.57;2.20;;;;;;;16.28;55.83;101045.84;5051402;28;20522;-59
2022/09/03 01:00:07;;;;;;;6.50;2.10;;;;;;;16.31;56.20;101048.28;5050977;28;20124;-59
2022/09/03 01:02:50;;;;;;;6.00;2.20;;;;;;;16.27;55.92;101046.84;5051083;28;20508;-55
2022/09/03 01:05:41;;;;;;;7.65;2.22;;;;;;;16.24;56.02;101050.59;5051249;28;21051;-60
2022/09/03 01:08:26;;;;;;;6.82;2.65;;;;;;;16.22;56.24;101047.22;5051484;28;20053;-59
2022/09/03 01:11:03;;;;;;;8.75;2.80;;;;;;;16.19;56.34;101047.50;5051345;28;20036;-59
2022/09/03 01:13:37;;;;;;;6.65;2.38;;;;;;;16.17;56.24;101046.78;5051530;28;20049;-60
2022/09/03 01:16:16;;;;;;;8.32;2.63;;;;;;;16.19;56.05;101047.50;5050434;28;20087;-58
2022/09/03 01:18:53;;;;;;;9.05;2.55;;;;;;;16.17;56.38;101049.44;5051947;28;20071;-60
2022/09/03 01:21:45;;;;;;;5.65;2.17;;;;;;;16.11;56.60;101052.63;5051129;28;20051;-54
2022/09/03 01:24:48;;;;;;;7.03;2.17;;;;;;;16.08;56.68;101055.53;5051114;28;20045;-55
2022/09/03 01:27:32;;;;;;;8.73;3.00;;;;;;;16.01;56.64;101056.06;5032507;28;20071;-53
2022/09/03 01:30:05;;;;;;;9.75;3.05;;;;;;;16.04;57.26;101049.66;5053599;28;20061;-56
2022/09/03 01:32:42;;;;;;;9.73;3.40;;;;;;;15.98;57.33;101058.13;5054660;28;20072;-55
2022/09/03 01:35:18;;;;;;;8.65;3.78;;;;;;;15.90;57.24;101058.78;5055209;28;20045;-59
2022/09/03 01:38:00;;;;;;;9.90;3.75;;;;;;;15.86;57.73;101062.66;5053726;28;20088;-60
2022/09/03 01:40:39;;;;;;;9.60;3.67;;;;;;;15.88;57.57;101063.38;5055033;28;20048;-59
2022/09/03 01:43:22;;;;;;;8.77;2.95;;;;;;;15.86;57.25;101060.84;5054478;28;20061;-54
2022/09/03 01:45:58;;;;;;;9.30;3.22;;;;;;;15.84;57.58;101053.97;5053281;28;20120;-55
2022/09/03 01:48:40;;;;;;;7.20;2.80;;;;;;;15.83;57.57;101058.47;5052738;28;20056;-54
2022/09/03 01:51:17;;;;;;;9.35;3.22;;;;;;;15.79;58.06;101062.31;5054102;28;20171;-55
2022/09/03 01:54:16;;;;;;;7.57;3.17;;;;;;;15.78;58.09;101057.13;5053990;28;20492;-55
2022/09/03 01:57:22;;;;;;;9.68;3.22;;;;;;;15.75;58.37;101054.72;5054374;28;20045;-55
2022/09/03 02:00:07;;;;;;;6.78;2.95;;;;;;;15.75;58.15;101060.03;5053960;28;20056;-59
2022/09/03 02:02:36;;;;;;;7.25;2.95;;;;;;;15.77;57.99;101063.41;5053963;28;20527;-60
2022/09/03 02:05:08;;;;;;;7.10;3.03;;;;;;;15.67;59.02;101064.16;5052574;28;20057;-54
2022/09/03 02:07:38;;;;;;;7.40;3.03;;;;;;;15.68;58.66;101057.91;5053807;28;20053;-54
2022/09/03 02:10:09;;;;;;;6.55;2.95;;;;;;;15.67;59.01;101058.88;5053864;28;20076;-56
2022/09/03 02:12:40;;;;;;;8.20;3.10;;;;;;;15.68;58.47;101063.19;5052639;28;20056;-55
2022/09/03 02:15:13;;;;;;;11.35;3.05;;;;;;;15.62;58.96;101061.03;5053360;28;20508;-55
2022/09/03 02:17:45;;;;;;;7.75;2.80;;;;;;;15.58;59.28;101061.44;5053718;28;20063;-53
2022/09/03 02:20:19;;;;;;;9.15;3.28;;;;;;;15.55;59.39;101060.72;5053683;28;20045;-55
2022/09/03 02:22:49;;;;;;;10.80;3.30;;;;;;;15.54;59.53;101058.19;5054110;28;20044;-54
2022/09/03 02:25:17;;;;;;;9.15;3.30;;;;;;;15.54;59.64;101064.34;5053838;28;20052;-59
2022/09/03 02:27:48;;;;;;;9.90;3.17;;;;;;;15.51;59.55;101061.09;5054011;28;20076;-59
2022/09/03 02:30:17;;;;;;;6.60;2.92;;;;;;;15.46;59.55;101058.84;5053728;28;20049;-59
2022/09/03 02:32:46;;;;;;;9.65;3.25;;;;;;;15.43;60.17;101060.91;5053531;28;20488;-54
2022/09/03 02:35:15;;;;;;;7.00;3.13;;;;;;;15.40;59.70;101054.03;5053805;28;20159;-60
2022/09/03 02:37:43;;;;;;;9.50;3.20;;;;;;;15.41;59.86;101055.72;5053506;28;20040;-55
2022/09/03 02:40:11;;;;;;;9.18;3.28;;;;;;;15.41;59.76;101054.91;5052661;28;20037;-56
2022/09/03 02:42:39;;;;;;;7.25;3.10;;;;;;;15.38;60.02;101054.16;5051955;28;20583;-60
2022/09/03 02:45:17;;;;;;;7.10;2.83;;;;;;;15.34;60.13;101052.75;5053297;28;20053;-57
2022/09/03 02:47:51;;;;;;;8.68;2.92;;;;;;;15.34;60.31;101055.38;5053226;28;20052;-60
2022/09/03 02:50:19;;;;;;;7.13;2.92;;;;;;;15.34;60.19;101052.75;5052867;28;20045;-54
2022/09/03 02:52:47;;;;;;;6.53;3.03;;;;;;;15.31;60.29;101052.13;5052520;28;20507;-59
2022/09/03 02:55:18;;;;;;;8.43;3.05;;;;;;;15.29;60.31;101049.63;5051066;28;20073;-55
2022/09/03 02:57:47;;;;;;;5.68;2.58;;;;;;;15.30;60.45;101046.00;5053327;28;20049;-57
2022/09/03 03:00:15;;;;;;;6.63;2.50;;;;;;;15.31;60.03;101050.34;5053052;28;20083;-59
2022/09/03 03:02:44;;;;;;;5.50;2.65;;;;;;;15.25;60.82;101047.34;5053027;28;20079;-56
2022/09/03 03:05:21;;;;;;;7.55;2.50;;;;;;;15.17;61.02;101043.53;5052824;28;20056;-60
2022/09/03 03:07:49;;;;;;;6.97;2.33;;;;;;;15.12;61.03;101043.06;5052839;28;20076;-54
2022/09/03 03:10:18;;;;;;;5.65;2.42;;;;;;;15.12;60.88;101045.72;5052905;28;20689;-59
2022/09/03 03:12:46;;;;;;;5.50;2.40;;;;;;;15.07;61.26;101047.06;5052967;28;20045;-54
2022/09/03 03:15:14;;;;;;;5.55;2.28;;;;;;;15.03;61.47;101039.34;5053012;28;20144;-55
2022/09/03 03:17:42;;;;;;;5.65;2.50;;;;;;;15.04;61.39;101038.38;5052842;28;20099;-60
2022/09/03 03:20:11;;;;;;;6.47;2.25;;;;;;;14.97;61.72;101037.19;5052856;28;20492;-59
2022/09/03 03:22:41;;;;;;;8.48;2.80;;;;;;;14.99;61.54;101035.25;5053007;28;20045;-59
2022/09/03 03:25:09;;;;;;;6.57;2.78;;;;;;;15.01;61.18;101036.00;5052703;28;20523;-59
2022/09/03 03:27:40;;;;;;;11.55;3.25;;;;;;;15.01;61.84;101035.13;5052611;28;20136;-59
2022/09/03 03:30:11;;;;;;;7.32;2.92;;;;;;;14.99;61.51;101045.03;5052435;28;20070;-55
2022/09/03 03:32:39;;;;;;;9.13;3.30;;;;;;;14.99;61.79;101031.78;5051695;28;20087;-56
2022/09/03 03:35:08;;;;;;;9.18;3.60;;;;;;;14.92;61.81;101036.72;5052004;28;20076;-53
2022/09/03 03:37:36;;;;;;;9.57;3.33;;;;;;;14.91;62.09;101039.50;5052068;28;20052;-54
2022/09/03 03:40:07;;;;;;;11.75;3.85;;;;;;;14.90;62.44;101043.09;5051808;28;20043;-56
2022/09/03 03:42:35;;;;;;;10.70;3.47;;;;;;;14.91;62.26;101042.97;5051698;28;20464;-59
2022/09/03 03:45:04;;;;;;;14.27;3.67;;;;;;;14.86;62.64;101043.34;5051781;28;20052;-59
2022/09/03 03:47:33;;;;;;;10.15;3.85;;;;;;;14.90;62.33;101038.63;5051826;28;20106;-60
2022/09/03 03:50:01;;;;;;;8.70;3.50;;;;;;;14.84;62.23;101032.03;5051556;28;20455;-52
2022/09/03 03:52:29;;;;;;;9.02;3.50;;;;;;;14.80;62.63;101040.34;5051787;28;20049;-54
2022/09/03 03:54:57;;;;;;;7.55;3.15;;;;;;;14.76;62.75;101041.56;5051713;28;20508;-55
2022/09/03 03:57:31;;;;;;;8.32;3.33;;;;;;;14.75;62.86;101043.38;5051904;28;20053;-61
2022/09/03 04:00:02;;;;;;;7.82;3.15;;;;;;;14.78;62.40;101037.84;5051496;28;20103;-55
2022/09/03 04:02:30;;;;;;;6.90;2.65;;;;;;;14.74;62.76;101048.78;5051581;28;20048;-60
2022/09/03 04:05:03;;;;;;;5.75;2.40;;;;;;;14.77;62.72;101030.84;5051704;28;20127;-54
2022/09/03 04:07:31;;;;;;;6.65;2.40;;;;;;;14.69;62.75;101031.44;5051895;28;20068;-58
2022/09/03 04:10:00;;;;;;;6.25;2.47;;;;;;;14.67;63.09;101027.25;5051888;28;20053;-59
2022/09/03 04:12:30;;;;;;;6.60;2.22;;;;;;;14.65;62.94;101032.66;5051852;28;20127;-54
2022/09/03 04:14:59;;;;;;;5.53;2.10;;;;;;;14.64;62.79;101036.28;5051709;28;20052;-59
2022/09/03 04:17:28;;;;;;;3.72;1.90;;;;;;;14.63;62.97;101034.59;5051767;28;20041;-58
2022/09/03 04:19:56;;;;;;;6.93;2.10;;;;;;;14.66;62.83;101039.66;5051691;28;20500;-58
2022/09/03 04:22:24;;;;;;;5.25;2.15;;;;;;;14.60;63.06;101028.66;5051614;28;20045;-60
2022/09/03 04:24:52;;;;;;;5.35;2.38;;;;;;;14.60;63.05;101037.47;5051785;28;20041;-53
2022/09/03 04:27:20;;;;;;;5.03;2.13;;;;;;;14.57;63.68;101029.75;5051596;28;20041;-55
2022/09/03 04:29:49;;;;;;;6.90;2.42;;;;;;;14.48;64.01;101030.47;5051387;28;20399;-53
2022/09/03 04:35:03;;;;;;;7.05;2.72;;;;;;;14.54;63.62;101024.72;5051448;28;20041;-53
2022/09/03 04:37:32;;;;;;;8.32;3.05;;;;;;;14.57;63.70;101027.09;5051138;28;20127;-58
2022/09/03 04:40:00;;;;;;;11.68;3.20;;;;;;;14.56;63.97;101025.44;5051190;28;20120;-59
2022/09/03 04:42:28;;;;;;;8.38;2.92;;;;;;;14.50;64.22;101026.75;5051000;28;20504;-59
2022/09/03 04:44:58;;;;;;;6.57;2.50;;;;;;;14.41;64.33;101023.97;5049859;28;20045;-54
2022/09/03 04:47:27;;;;;;;4.85;2.35;;;;;;;14.41;64.75;101026.63;5051235;28;20099;-59
2022/09/03 04:49:55;;;;;;;7.20;2.33;;;;;;;14.35;65.31;101022.66;5051116;28;20045;-54
2022/09/03 04:52:24;;;;;;;6.18;2.40;;;;;;;14.38;64.70;101030.34;5051000;28;20041;-60
2022/09/03 04:54:52;;;;;;;10.93;2.08;;;;;;;14.39;64.73;101023.28;5050994;28;20048;-59
2022/09/03 04:57:20;;;;;;;5.10;1.80;;;;;;;14.37;64.84;101026.88;5051022;28;20132;-50
2022/09/03 04:59:48;;;;;;;4.57;2.10;;;;;;;14.35;64.81;101034.09;5050813;28;20041;-51
2022/09/03 05:02:20;;;;;;;4.68;2.10;;;;;;;14.39;64.39;101024.09;5051982;28;20037;-54
2022/09/03 05:04:48;;;;;;;5.47;2.08;;;;;;;14.40;64.30;101020.50;5054874;28;20055;-53
2022/09/03 05:07:16;;;;;;;5.07;2.20;;;;;;;14.36;64.88;101030.47;5054852;28;20517;-54
2022/09/03 05:09:47;;;;;;;5.75;2.20;;;;;;;14.36;64.60;101027.84;5055150;28;20049;-55
2022/09/03 05:12:15;;;;;;;3.63;1.83;;;;;;;14.33;65.04;101021.97;5055009;28;20037;-54
2022/09/03 05:14:44;;;;;;;3.72;1.90;;;;;;;14.36;64.97;101029.66;5055154;28;20048;-60
2022/09/03 05:17:12;;;;;;;6.00;1.98;;;;;;;14.36;64.87;101027.00;5053738;28;20053;-60
2022/09/03 05:19:41;;;;;;;4.78;1.80;;;;;;;14.33;65.39;101029.91;5054970;28;20527;-53
2022/09/03 05:22:09;;;;;;;3.63;1.80;;;;;;;14.33;65.38;101030.72;5055299;28;20048;-54
2022/09/03 05:24:37;;;;;;;4.32;1.65;;;;;;;14.34;65.08;101035.06;5054790;28;20079;-55
2022/09/03 05:27:06;;;;;;;4.57;1.80;;;;;;;14.34;65.24;101037.72;5054795;28;20392;-59
2022/09/03 05:29:34;;;;;;;5.70;1.70;;;;;;;14.35;66.16;101035.91;5054425;28;20040;-58
2022/09/03 05:32:03;;;;;;;3.55;1.77;;;;;;;14.35;65.31;101036.72;5054653;28;20041;-53
2022/09/03 05:34:31;;;;;;;5.38;1.80;;;;;;;14.34;65.85;101034.22;5054673;28;20083;-52
2022/09/03 05:37:01;;;;;;;6.05;1.80;;;;;;;14.32;66.02;101031.69;5052987;28;20059;-59
2022/09/03 05:39:29;;;;;;;4.97;1.92;;;;;;;14.29;66.57;101028.44;5054455;28;20048;-58
2022/09/03 05:41:57;;;;;;;4.40;1.80;;;;;;;14.31;66.91;101032.63;5054646;28;20048;-55
2022/09/03 05:44:25;;;;;;;5.50;1.92;;;;;;;14.36;66.25;101034.94;5054445;28;20064;-53
2022/09/03 05:46:53;;;;;;;4.32;1.85;;;;;;;14.43;66.28;101032.66;5054612;28;20041;-56
2022/09/03 05:49:21;;;;;;;5.85;1.80;;;;;;;14.36;66.15;101030.47;5054304;28;20051;-54
2022/09/03 05:51:49;;;;;;;4.45;1.77;;;;;;;14.45;65.90;101022.78;5054689;28;20060;-55
2022/09/03 05:54:19;;;;;;;2.85;1.67;;;;;;;14.46;66.56;101027.13;5054683;28;20041;-52
2022/09/03 05:56:48;;;;;;;5.22;1.90;;;;;;;14.48;66.65;101028.69;5054218;28;20052;-53
2022/09/03 05:59:16;;;;;;;5.47;2.08;;;;;;;14.52;66.01;101029.28;5054509;28;20090;-59
2022/09/03 06:01:46;;;;;;;4.72;1.92;;;;;;;14.53;65.50;101037.09;5054248;28;20045;-58
2022/09/03 06:04:19;;;;;;;5.13;2.08;;;;;;;14.54;66.05;101033.47;5053887;28;20059;-54
2022/09/03 06:06:48;;;;;;;5.05;2.00;;;;;;;14.57;66.34;101042.16;5053037;28;20080;-54
2022/09/03 06:09:20;;;;;;;5.97;2.08;;;;;;;14.61;66.15;101044.41;5054197;28;20045;-52
2022/09/03 06:11:50;;;;;;;4.10;2.05;;;;;;;14.68;66.20;101040.38;5053923;28;20582;-53
2022/09/03 06:14:20;;;;;;;6.00;2.10;;;;;;;14.70;65.13;101046.38;5052853;28;20052;-59
2022/09/03 06:16:51;;;;;;;4.80;2.03;;;;;;;14.77;65.22;101037.97;5053859;28;20388;-55
2022/09/03 06:19:20;;;;;;;4.35;1.83;;;;;;;14.82;65.82;101039.28;5054028;28;20045;-53
2022/09/03 06:21:48;;;;;;;7.15;2.08;;;;;;;14.93;64.42;101037.56;5053912;28;20412;-54
2022/09/03 06:24:22;;;;;;;6.30;2.15;;;;;;;14.97;64.67;101039.84;5053567;28;20056;-53
2022/09/03 06:26:55;;;;;;;8.82;2.58;;;;;;;15.11;64.31;101037.91;5053650;28;20052;-50
2022/09/03 06:29:23;;;;;;;5.93;2.17;;;;;;;15.15;64.26;101039.31;5053735;28;20053;-54
2022/09/03 06:31:51;;;;;;;4.72;1.90;;;;;;;15.15;63.98;101039.31;5053818;28;20045;-63
2022/09/03 06:34:21;;;;;;;4.00;2.10;;;;;;;15.23;63.87;101036.03;5053582;28;20124;-55
2022/09/03 06:36:50;;;;;;;4.00;2.20;;;;;;;15.34;64.06;101046.59;5053639;28;20052;-60
2022/09/03 06:39:23;;;;;;;4.95;2.30;;;;;;;15.42;63.77;101048.59;5053576;28;20049;-54
2022/09/03 06:41:52;;;;;;;5.75;2.22;;;;;;;15.51;62.91;101039.91;5053445;28;20042;-54
2022/09/03 06:44:20;;;;;;;4.25;2.10;;;;;;;15.57;62.94;101042.06;5052986;28;20072;-54
2022/09/03 06:46:49;;;;;;;6.88;2.20;;;;;;;15.68;63.53;101044.66;5053229;28;20041;-60
2022/09/03 06:49:18;;;;;;;4.38;2.10;;;;;;;15.76;63.12;101041.38;5053238;28;20099;-59
2022/09/03 06:51:46;;;;;;;6.03;2.55;;;;;;;15.84;62.91;101043.38;5053059;28;20060;-59
2022/09/03 06:54:15;;;;;;;5.35;1.77;;;;;;;15.93;62.25;101042.59;5052151;28;20053;-51
2022/09/03 06:56:44;;;;;;;5.45;2.00;;;;;;;16.09;62.54;101041.28;5053039;28;20098;-55
2022/09/03 06:59:14;;;;;;;7.20;1.83;;;;;;;16.15;61.33;101041.59;5052626;28;20458;-51
2022/09/03 07:01:44;;;;;;;3.45;1.67;;;;;;;16.28;61.11;101043.19;5052856;28;20521;-54
2022/09/03 07:04:16;;;;;;;5.80;1.80;;;;;;;16.42;60.26;101044.69;5052777;28;20041;-54
2022/09/03 07:06:47;;;;;;;5.88;2.08;;;;;;;16.53;59.79;101040.09;5052664;28;20044;-53
2022/09/03 07:09:17;;;;;;;4.22;1.48;;;;;;;16.68;60.20;101047.72;5052650;28;20052;-54
2022/09/03 07:11:46;;;;;;;9.02;1.88;;;;;;;16.82;60.27;101039.34;5052682;28;20045;-55
2022/09/03 07:14:16;;;;;;;6.15;1.77;;;;;;;16.99;59.41;101045.88;5052808;28;20052;-57
2022/09/03 07:16:45;;;;;;;3.03;1.50;;;;;;;17.15;58.60;101044.47;5051287;28;20518;-56
2022/09/03 07:19:13;;;;;;;4.53;1.70;;;;;;;17.28;59.01;101041.56;5052659;28;20106;-58
2022/09/03 07:21:42;;;;;;;3.45;1.58;;;;;;;17.41;58.34;101047.47;5052230;28;20040;-56
2022/09/03 07:24:16;;;;;;;3.15;1.50;;;;;;;17.55;57.71;101041.69;5052448;28;20045;-55
2022/09/03 07:26:47;;;;;;;5.75;1.80;;;;;;;17.75;57.28;101047.00;5052076;28;20072;-57
2022/09/03 07:29:18;;;;;;;3.70;1.70;;;;;;;17.98;55.94;101046.72;5052328;28;20492;-60
2022/09/03 07:31:50;;;;;;;3.97;1.55;;;;;;;18.12;55.71;101048.94;5052159;28;20067;-60
2022/09/03 07:34:19;;;;;;;5.70;1.73;;;;;;;18.37;54.63;101047.44;5052266;28;20053;-57
2022/09/03 07:36:50;;;;;;;3.53;1.75;;;;;;;18.55;54.53;101047.50;5052572;28;20052;-58
2022/09/03 07:39:19;;;;;;;4.40;1.70;;;;;;;18.64;53.47;101048.44;5051645;28;20045;-58
2022/09/03 07:41:49;;;;;;;6.00;1.88;;;;;;;18.82;52.98;101045.00;5052144;28;20059;-57
2022/09/03 07:44:19;;;;;;;5.43;2.20;;;;;;;18.91;51.67;101039.63;5051816;28;20081;-60
2022/09/03 07:46:49;;;;;;;4.00;1.50;;;;;;;19.10;51.87;101035.16;5051923;28;20048;-61
2022/09/03 07:49:20;;;;;;;5.10;1.70;;;;;;;19.32;51.79;101039.22;5052301;28;20504;-55
2022/09/03 07:51:52;;;;;;;4.47;1.88;;;;;;;19.45;50.59;101041.47;5051201;28;20049;-58
2022/09/03 07:54:20;;;;;;;4.68;1.38;;;;;;;19.69;50.57;101037.34;5050784;28;20053;-58
2022/09/03 07:56:50;;;;;;;2.13;1.30;;;;;;;19.92;49.14;101027.03;5051750;28;20505;-58
2022/09/03 07:59:19;;;;;;;3.13;1.50;;;;;;;20.09;49.01;101034.13;5051780;28;20053;-62
2022/09/03 08:01:47;;;;;;;4.68;1.42;;;;;;;20.26;48.55;101032.41;5051807;28;20520;-57
2022/09/03 08:04:15;;;;;;;4.50;1.38;;;;;;;20.50;48.36;101035.34;5051940;28;20457;-58
2022/09/03 08:06:43;;;;;;;4.93;1.40;;;;;;;20.71;47.72;101035.81;5051606;28;20551;-58
2022/09/03 08:09:13;;;;;;;5.78;1.42;;;;;;;20.91;46.88;101033.69;5051986;28;20380;-58
2022/09/03 08:11:43;;;;;;;4.72;1.50;;;;;;;20.96;46.66;101035.03;5051908;28;20052;-58
2022/09/03 08:14:15;;;;;;;3.95;1.38;;;;;;;21.24;46.66;101030.22;5051527;28;20055;-58
2022/09/03 08:16:46;;;;;;;3.78;1.52;;;;;;;21.50;45.78;101034.59;5051859;28;20446;-58
2022/09/03 08:19:17;;;;;;;6.15;1.83;;;;;;;21.61;45.03;101029.78;5051606;28;20140;-60
2022/09/03 08:21:45;;;;;;;5.22;1.30;;;;;;;21.78;44.39;101027.91;5051703;28;20451;-62
2022/09/03 08:24:15;;;;;;;2.92;1.23;;;;;;;21.91;43.98;101038.09;5051553;28;20041;-57
2022/09/03 08:26:43;;;;;;;4.20;1.20;;;;;;;22.14;43.69;101036.53;5050276;28;20518;-57
2022/09/03 08:29:20;;;;;;;4.47;1.15;;;;;;;22.33;43.80;101036.13;5051692;28;20051;-60
2022/09/03 08:31:48;;;;;;;3.75;1.42;;;;;;;22.56;43.01;101038.94;5051594;28;20056;-57
2022/09/03 08:34:17;;;;;;;1.95;1.13;;;;;;;22.67;42.90;101031.53;5051534;28;20045;-61
2022/09/03 08:36:46;;;;;;;5.45;1.58;;;;;;;22.90;41.43;101029.72;5051479;28;20041;-62
2022/09/03 08:39:15;;;;;;;5.40;1.50;;;;;;;23.01;41.25;101030.34;5055746;28;20456;-61
2022/09/03 08:42:19;;;;;;;3.50;1.48;;;;;;;23.24;41.85;101041.94;5055380;28;20045;-58
2022/09/03 08:44:50;;;;;;;;;;;;;;;23.39;40.46;101036.63;5051224;28;20106;-61
2022/09/03 08:47:23;;;;;;;3.90;1.40;;;;;;;23.55;40.14;101038.34;5055232;28;19924;-58
2022/09/03 08:49:56;;;;;;;4.95;1.38;;;;;;;23.69;39.86;101027.81;5055318;28;20045;-61
2022/09/03 08:52:29;;;;;;;5.55;1.10;;;;;;;23.76;39.34;101037.66;5054834;28;20052;-60
2022/09/03 08:55:04;;;;;;;3.60;1.20;;;;;;;23.86;39.54;101039.22;5055322;28;20068;-61
2022/09/03 08:57:40;;;;;;;2.00;1.15;;;;;;;23.95;39.32;101032.78;5054793;28;20404;-58
2022/09/03 09:00:11;;;;;;;3.70;1.33;;;;;;;23.90;39.09;101035.19;5055132;28;20127;-58
2022/09/03 09:02:51;;;;;;;4.13;1.50;;;;;;;24.32;39.27;101027.53;5054752;28;20060;-58
2022/09/03 09:05:25;;;;;;;4.22;1.38;;;;;;;24.58;38.23;101035.09;5053371;28;20103;-58
2022/09/03 09:08:03;;;;;;;2.47;1.15;;;;;;;24.61;37.49;101038.28;5054666;28;20053;-59
2022/09/03 09:10:44;;;;;;;2.80;1.40;;;;;;;24.61;37.27;101032.91;5055298;28;20041;-59
2022/09/03 09:13:22;;;;;;;3.92;1.30;;;;;;;24.90;37.80;101033.03;5054904;28;20044;-58
2022/09/03 09:16:03;;;;;;;4.00;1.25;;;;;;;25.12;37.13;101039.25;5055181;28;20044;-58
2022/09/03 09:18:44;;;;;;;3.30;1.13;;;;;;;25.20;37.13;101031.06;5054702;28;20523;-61
2022/09/03 09:21:18;;;;;;;3.55;1.23;;;;;;;25.44;36.44;101029.84;5054864;28;20040;-61
2022/09/03 09:23:52;;;;;;;4.93;1.20;;;;;;;25.51;35.95;101029.06;5054988;28;20527;-62
2022/09/03 09:26:22;;;;;;;4.93;1.27;;;;;;;25.64;36.28;101019.22;5054688;28;20385;-61
2022/09/03 09:28:54;;;;;;;2.55;1.08;;;;;;;25.98;36.24;101020.28;5054598;28;20087;-61
2022/09/03 09:31:24;;;;;;;;;;;;;;;25.69;35.36;101029.44;5055261;28;20107;-62
2022/09/03 09:33:52;;;;;;;3.45;1.10;;;;;;;26.03;35.29;101025.13;5053178;28;20368;-59
2022/09/03 09:36:21;;;;;;;5.57;1.10;;;;;;;25.81;35.33;101021.66;5054241;28;20102;-58
2022/09/03 09:38:50;;;;;;;3.65;1.13;;;;;;;26.06;35.14;101021.22;5054369;28;20139;-62
2022/09/03 09:41:20;;;;;;;4.10;1.48;;;;;;;26.40;35.31;101024.91;5054108;28;20507;-61
2022/09/03 09:44:01;;;;;;;4.40;1.38;;;;;;;26.65;34.24;101022.50;5054198;28;20057;-61
2022/09/03 09:46:35;;;;;;;5.68;1.40;;;;;;;26.75;33.98;101025.69;5054325;28;20059;-61
2022/09/03 09:49:25;;;;;;;5.43;1.40;;;;;;;26.76;34.24;101021.94;5053976;28;20385;-59
2022/09/03 09:52:03;;;;;;;3.30;1.30;;;;;;;26.74;32.98;101034.00;5054161;28;20045;-60
2022/09/03 09:54:31;;;;;;;2.97;1.00;;;;;;;26.61;33.84;101023.94;5054189;28;20055;-59
2022/09/03 09:57:02;;;;;;;4.30;1.10;;;;;;;26.97;34.10;101025.56;5054258;28;20048;-59
2022/09/03 09:59:32;;;;;;;3.80;1.15;;;;;;;27.19;33.49;101026.22;5053700;28;20691;-59
2022/09/03 10:02:11;;;;;;;2.88;1.20;;;;;;;27.14;32.99;101015.19;5053682;28;20531;-59
2022/09/03 10:04:49;;;;;;;3.35;1.25;;;;;;;27.26;32.80;101012.72;5052293;28;20106;-60
2022/09/03 10:07:25;;;;;;;4.15;1.40;;;;;;;27.42;33.20;101015.03;5053949;28;20076;-60
2022/09/03 10:10:02;;;;;;;4.40;1.30;;;;;;;27.51;32.36;101010.25;5054007;28;20056;-58
2022/09/03 10:12:38;;;;;;;3.65;1.25;;;;;;;27.64;32.52;101015.66;5054145;28;20404;-59
2022/09/03 10:15:25;;;;;;;3.67;1.20;;;;;;;27.92;31.79;101016.44;5052028;28;20045;-61
2022/09/03 10:18:03;;;;;;;1.95;1.17;;;;;;;28.19;31.65;101019.13;5053532;28;20036;-61
2022/09/03 10:20:39;;;;;;;2.35;1.08;;;;;;;27.99;31.49;101018.09;5053635;28;20067;-62
2022/09/03 10:23:16;;;;;;;4.25;1.38;;;;;;;28.04;32.21;101016.66;5053843;28;20546;-61
2022/09/03 10:25:59;;;;;;;5.47;1.30;;;;;;;28.46;31.12;101012.53;5052632;28;20049;-61
2022/09/03 10:28:29;;;;;;;4.38;1.20;;;;;;;28.61;31.48;101008.75;5053690;28;20055;-62
2022/09/03 10:31:17;;;;;;;3.38;1.30;;;;;;;28.93;30.33;101006.94;5053689;28;20099;-60
2022/09/03 10:33:55;;;;;;;2.63;1.13;;;;;;;29.14;29.81;101013.03;5053589;28;20053;-58
2022/09/03 10:36:28;;;;;;;3.90;1.50;;;;;;;28.75;31.48;101004.94;5053568;28;20053;-59
2022/09/03 10:39:05;;;;;;;3.85;1.60;;;;;;;28.91;29.61;101008.19;5053447;28;20055;-59
2022/09/03 10:41:50;;;;;;;3.90;1.20;;;;;;;29.10;29.59;101007.22;5053386;28;20053;-60
2022/09/03 10:44:39;;;;;;;2.67;1.27;;;;;;;29.12;29.05;101007.84;5053190;28;20053;-58
2022/09/03 10:47:22;;;;;;;5.00;1.20;;;;;;;29.15;29.45;101003.84;5053351;28;20721;-60
2022/09/03 10:50:01;;;;;;;2.20;1.05;;;;;;;28.97;29.24;101000.03;5053308;28;20381;-59
2022/09/03 10:52:38;;;;;;;3.08;1.23;;;;;;;29.10;29.11;101000.97;5053467;28;20075;-58
2022/09/03 10:55:22;;;;;;;4.15;1.35;;;;;;;29.47;29.32;101001.94;5053121;28;20053;-60
2022/09/03 10:58:04;;;;;;;3.88;1.10;;;;;;;28.62;29.10;100999.59;5053207;28;20045;-60
2022/09/03 11:00:38;;;;;;;2.80;1.35;;;;;;;28.95;29.08;101006.72;5052583;28;20423;-60
2022/09/03 11:03:43;;;;;;;4.63;1.02;;;;;;;29.18;29.33;101006.13;5052996;28;20060;-59
2022/09/03 11:06:19;;;;;;;2.53;1.20;;;;;;;29.50;29.44;101000.69;5049266;28;20064;-61
2022/09/03 11:08:55;;;;;;;3.47;1.60;;;;;;;29.76;28.72;101002.28;5052427;28;20044;-61
2022/09/03 11:11:29;;;;;;;2.88;1.40;;;;;;;29.82;28.69;101004.13;5052567;28;20099;-62
2022/09/03 11:14:02;;;;;;;4.05;1.40;;;;;;;30.06;28.69;100998.88;5052235;28;20492;-62
2022/09/03 11:16:33;;;;;;;4.53;1.30;;;;;;;30.23;28.00;100995.56;5052446;28;20037;-63
2022/09/03 11:19:05;;;;;;;3.70;1.15;;;;;;;30.18;28.50;100993.53;5052344;28;20076;-63
2022/09/03 11:21:40;;;;;;;4.10;1.20;;;;;;;30.65;28.03;100984.81;5052568;28;20571;-63
2022/09/03 11:24:14;;;;;;;6.03;1.33;;;;;;;30.47;27.68;100991.97;5051149;28;21042;-63
2022/09/03 11:26:47;;;;;;;3.30;1.20;;;;;;;30.24;27.66;100991.78;5051216;28;20048;-63
2022/09/03 11:29:24;;;;;;;4.38;1.08;;;;;;;30.54;27.71;100985.59;5052655;28;20044;-62
2022/09/03 11:31:57;;;;;;;2.97;1.23;;;;;;;30.72;27.46;100980.13;5052540;28;20107;-60
2022/09/03 11:34:32;;;;;;;3.65;1.20;;;;;;;30.84;26.98;100975.56;5052200;28;20060;-60
2022/09/03 11:37:18;;;;;;;4.50;1.20;;;;;;;30.91;27.15;100980.91;5052553;28;20404;-63
2022/09/03 11:39:55;;;;;;;3.70;1.65;;;;;;;31.17;27.55;100978.84;5052519;28;20415;-63
2022/09/03 11:42:33;;;;;;;4.82;1.30;;;;;;;31.27;26.78;100972.84;5052117;28;20554;-63
2022/09/03 11:45:35;;;;;;;4.00;1.13;;;;;;;31.48;26.96;100977.69;5052232;28;20508;-63
2022/09/03 11:48:17;;;;;;;5.25;1.30;;;;;;;31.89;25.96;100966.94;5019851;28;20445;-62
2022/09/03 11:50:54;;;;;;;4.22;1.30;;;;;;;31.68;26.44;100965.66;5052428;28;20056;-63
2022/09/03 11:53:27;;;;;;;5.25;1.27;;;;;;;31.47;26.55;100969.78;5050770;28;20045;-63
2022/09/03 11:55:59;;;;;;;3.20;1.42;;;;;;;31.77;26.59;100969.66;5052156;28;20451;-62